Time;durP1;ratioP1;P1;durP2;ratioP2;P2;SDS_P1;SDS_P2;PMS_P1;PMS_P2;Temp;Humidity;BMP_temperature;BMP_pressure;BME280_temperature;BME280_humidity;BME280_pressure;Samples;Min_cycle;Max_cycle;Signal;HPM_P1;HPM_P2
2022/07/17 00:03:44;;;;;;;1.50;0.70;;;20.90;36.20;;;18.85;38.78;102071.75;12240880;19;20500;-77
2022/07/17 00:07:48;;;;;;;1.35;0.60;;;20.90;36.30;;;18.95;38.73;102091.34;12242045;19;20007;-77
2022/07/17 00:11:50;;;;;;;7.93;0.90;;;20.80;36.30;;;18.87;38.74;102091.00;12234471;19;20038;-77
2022/07/17 00:15:52;;;;;;;2.25;0.90;;;20.80;36.40;;;18.83;38.79;102099.28;12241049;19;20014;-77
2022/07/17 00:19:53;;;;;;;1.67;0.82;;;20.80;36.40;;;18.65;39.04;102094.25;12225325;19;20077;-77
2022/07/17 00:23:55;;;;;;;1.80;0.70;;;20.70;36.40;;;18.63;39.20;102095.28;12233778;19;20053;-77
2022/07/17 00:27:56;;;;;;;0.68;0.50;;;20.60;36.40;;;18.63;39.20;102092.66;12234191;19;20031;-77
2022/07/17 00:31:58;;;;;;;2.65;0.82;;;20.50;36.50;;;18.44;39.00;102072.72;12228374;19;20018;-77
2022/07/17 00:36:00;;;;;;;2.30;0.70;;;20.80;36.70;;;18.63;39.27;102116.47;12237174;19;20398;-77
2022/07/17 00:40:02;;;;;;;1.30;0.70;;;20.50;36.70;;;18.50;39.53;102090.84;12241243;19;20007;-77
2022/07/17 00:44:11;;;;;;;2.05;0.85;;;20.40;36.70;;;18.58;39.32;102115.00;12236924;19;20434;-77
2022/07/17 00:48:13;;;;;;;2.05;0.80;;;20.40;36.80;;;18.47;39.56;102088.41;12239999;19;20353;-77
2022/07/17 00:52:17;;;;;;;2.42;0.47;;;20.40;36.80;;;18.42;39.61;102098.44;12234400;19;20073;-77
2022/07/17 00:56:22;;;;;;;4.03;0.73;;;20.60;36.90;;;18.42;39.51;102103.72;12238019;19;20021;-77
2022/07/17 01:00:24;;;;;;;3.80;0.83;;;20.30;36.80;;;18.27;39.58;102083.59;12238267;19;20026;-77
2022/07/17 01:04:25;;;;;;;2.05;0.73;;;20.50;36.90;;;18.31;39.58;102100.97;12232325;19;20359;-77
2022/07/17 01:08:27;;;;;;;4.35;0.98;;;20.20;36.80;;;18.29;39.84;102098.41;12237703;19;20078;-77
2022/07/17 01:12:32;;;;;;;0.85;0.73;;;20.20;36.90;;;18.20;39.79;102093.72;12234120;19;20018;-77
2022/07/17 01:16:35;;;;;;;2.05;0.65;;;20.20;37.40;;;18.07;39.88;102072.53;12238096;19;20025;-77
2022/07/17 01:20:39;;;;;;;1.20;0.80;;;20.10;37.00;;;18.09;39.82;102073.28;12235923;19;20014;-77
2022/07/17 01:24:41;;;;;;;1.33;0.67;;;20.10;37.00;;;18.21;39.81;102099.84;12242410;19;20668;-78
2022/07/17 01:28:43;;;;;;;1.80;0.68;;;20.10;37.00;;;18.05;39.77;102092.91;12246581;19;20022;-77
2022/07/17 01:32:45;;;;;;;1.88;0.70;;;20.10;37.10;;;17.91;39.85;102074.47;12246305;19;20491;-77
2022/07/17 01:36:47;;;;;;;1.13;0.82;;;20.00;37.10;;;17.92;40.02;102084.94;12246736;19;20018;-78
2022/07/17 01:40:48;;;;;;;1.30;0.70;;;20.30;37.40;;;17.86;40.16;102087.97;12247533;19;20074;-78
2022/07/17 01:44:52;;;;;;;1.25;0.90;;;19.90;37.30;;;17.86;40.46;102090.63;12251785;19;20033;-77
2022/07/17 01:48:54;;;;;;;2.78;0.70;;;19.90;37.30;;;17.90;40.10;102091.25;12249990;19;20460;-78
2022/07/17 01:52:55;;;;;;;3.08;0.70;;;19.80;37.40;;;17.88;40.17;102094.00;12246667;19;20364;-77
2022/07/17 01:56:57;;;;;;;0.73;0.55;;;19.80;37.40;;;17.84;40.54;102097.78;12244606;19;20011;-77
2022/07/17 02:00:59;;;;;;;1.45;0.75;;;19.70;37.50;;;17.75;40.46;102082.50;12248355;19;20018;-77
2022/07/17 02:05:00;;;;;;;3.28;0.85;;;19.70;37.50;;;17.79;40.33;102101.66;12243498;19;20014;-77
2022/07/17 02:09:02;;;;;;;2.78;0.70;;;19.70;37.60;;;17.73;40.61;102096.75;12246130;19;20404;-77
2022/07/17 02:13:04;;;;;;;0.60;0.60;;;19.60;37.70;;;17.68;40.50;102103.16;12247936;19;20409;-77
2022/07/17 02:17:06;;;;;;;3.08;0.73;;;19.60;37.50;;;17.60;40.55;102094.88;12242398;19;20018;-77
2022/07/17 02:21:08;;;;;;;1.00;0.50;;;19.50;37.50;;;17.57;40.46;102105.63;12246002;19;20078;-77
2022/07/17 02:25:10;;;;;;;1.90;0.60;;;19.50;37.60;;;17.44;40.58;102092.38;12246014;19;20409;-77
2022/07/17 02:29:12;;;;;;;1.30;0.75;;;19.40;37.60;;;17.44;40.91;102107.34;12247571;19;20082;-78
2022/07/17 02:33:14;;;;;;;0.80;0.50;;;19.50;37.70;;;17.35;40.95;102103.47;12247900;19;20064;-78
2022/07/17 02:37:16;;;;;;;3.33;1.08;;;19.30;37.70;;;17.25;40.79;102092.66;12242368;19;20018;-77
2022/07/17 02:41:17;;;;;;;2.10;0.63;;;19.50;37.80;;;17.25;41.05;102094.41;12244753;19;20014;-77
2022/07/17 02:45:24;;;;;;;1.67;0.77;;;19.30;37.70;;;17.16;40.77;102100.28;12248092;19;20103;-77
2022/07/17 02:49:25;;;;;;;5.28;0.98;;;19.30;37.80;;;16.98;40.90;102091.66;12246997;19;20034;-78
2022/07/17 02:53:27;;;;;;;2.83;0.88;;;19.00;37.70;;;16.88;40.98;102093.19;12246751;19;20389;-78
2022/07/17 02:57:29;;;;;;;2.17;0.70;;;19.00;37.80;;;16.71;41.25;102081.78;12242495;19;20086;-77
2022/07/17 03:01:31;;;;;;;1.15;0.75;;;18.80;37.80;;;16.81;41.18;102111.16;12244465;19;20023;-77
2022/07/17 03:05:32;;;;;;;4.07;0.85;;;18.80;37.90;;;16.60;41.39;102097.41;12242430;19;20127;-77
2022/07/17 03:09:34;;;;;;;2.70;0.80;;;18.70;37.90;;;16.71;41.21;102120.53;12244578;19;20025;-78
2022/07/17 03:13:36;;;;;;;3.33;0.80;;;18.70;38.00;;;16.61;41.36;102120.22;12246289;19;20440;-77
2022/07/17 03:17:39;;;;;;;1.35;1.08;;;18.60;38.00;;;16.53;41.47;102112.75;12241156;19;20018;-77
2022/07/17 03:21:41;;;;;;;1.25;0.52;;;18.50;38.10;;;16.49;41.51;102124.41;12240201;19;20023;-77
2022/07/17 03:25:43;;;;;;;3.30;1.17;;;18.50;38.20;;;16.41;41.50;102125.78;12242048;19;20046;-78
2022/07/17 03:29:45;;;;;;;1.88;0.90;;;18.40;38.20;;;16.36;41.84;102136.59;12244991;19;20015;-78
2022/07/17 03:33:46;;;;;;;0.98;0.63;;;18.50;38.50;;;16.23;41.72;102119.78;12242778;19;20010;-77
2022/07/17 03:37:48;;;;;;;1.42;0.50;;;18.50;38.50;;;16.28;42.05;102147.59;12240505;19;20018;-78
2022/07/17 03:41:50;;;;;;;3.08;0.68;;;18.30;38.60;;;16.14;41.88;102132.53;12242831;19;20026;-77
2022/07/17 03:45:52;;;;;;;1.27;0.70;;;18.50;38.80;;;16.03;42.13;102115.63;12241137;19;20018;-77
2022/07/17 03:49:53;;;;;;;1.17;0.60;;;18.20;38.60;;;16.15;41.96;102142.16;12237610;19;20018;-77
2022/07/17 03:53:55;;;;;;;2.22;0.63;;;18.20;38.70;;;15.95;42.05;102131.00;12243757;19;20038;-77
2022/07/17 03:57:57;;;;;;;1.05;0.68;;;18.10;38.70;;;16.03;42.33;102150.72;12236865;19;20090;-77
2022/07/17 04:01:58;;;;;;;1.65;0.88;;;18.10;38.90;;;16.09;42.07;102168.88;12238836;19;20014;-77
2022/07/17 04:06:00;;;;;;;0.77;0.68;;;18.30;39.00;;;15.92;42.28;102148.69;12240190;19;20022;-77
2022/07/17 04:10:03;;;;;;;0.75;0.70;;;18.00;38.90;;;16.06;42.32;102174.28;12241621;19;20018;-77
2022/07/17 04:14:05;;;;;;;1.48;0.60;;;18.00;39.00;;;15.83;42.38;102140.47;12231834;19;20010;-77
2022/07/17 04:18:06;;;;;;;0.95;0.63;;;18.00;39.00;;;15.77;42.65;102146.03;12231630;19;20010;-78
2022/07/17 04:22:08;;;;;;;1.50;0.77;;;18.20;39.30;;;15.94;42.34;102185.50;12232277;19;20711;-77
2022/07/17 04:26:10;;;;;;;0.93;0.70;;;18.00;39.20;;;15.85;42.69;102183.34;12237500;19;20426;-77
2022/07/17 04:30:12;;;;;;;1.83;0.60;;;17.90;39.30;;;15.74;42.97;102177.81;12236595;19;20015;-77
2022/07/17 04:34:13;;;;;;;2.85;0.70;;;17.80;39.40;;;15.85;42.97;102197.41;12230231;19;20030;-77
2022/07/17 04:38:15;;;;;;;4.13;0.85;;;17.80;39.50;;;15.84;43.00;102200.94;12233998;19;20014;-77
2022/07/17 04:42:17;;;;;;;0.60;0.60;;;17.80;39.70;;;15.69;43.00;102180.72;12236924;19;20018;-77
2022/07/17 04:46:19;;;;;;;1.95;0.50;;;17.80;39.80;;;15.85;43.18;102214.97;12240289;19;20021;-78
2022/07/17 04:50:21;;;;;;;1.05;0.55;;;17.80;39.90;;;15.87;43.24;102213.09;12237519;19;20021;-77
2022/07/17 04:54:23;;;;;;;1.08;0.68;;;17.80;40.00;;;15.83;43.23;102185.25;12238628;19;20413;-77
2022/07/17 04:58:24;;;;;;;0.73;0.52;;;17.80;40.10;;;15.97;43.26;102202.94;12239143;19;20029;-77
2022/07/17 05:02:26;;;;;;;2.20;0.60;;;17.80;40.20;;;15.98;43.61;102180.91;12227609;19;20014;-77
2022/07/17 05:06:28;;;;;;;5.28;1.17;;;17.90;40.20;;;16.06;43.33;102186.59;12236130;19;20353;-77
2022/07/17 05:10:30;;;;;;;1.25;0.65;;;18.00;40.30;;;16.17;43.26;102194.75;12236036;19;20046;-77
2022/07/17 05:14:32;;;;;;;1.50;0.63;;;18.10;40.20;;;15.83;43.42;102122.03;12233533;19;20019;-77
2022/07/17 05:18:34;;;;;;;1.42;0.63;;;18.30;40.30;;;16.35;43.31;102198.19;12235022;19;20014;-77
2022/07/17 05:22:35;;;;;;;0.73;0.68;;;18.20;40.20;;;16.28;43.30;102176.59;12229764;19;20011;-78
2022/07/17 05:26:37;;;;;;;1.38;0.68;;;18.30;40.30;;;16.50;43.43;102196.44;12235744;19;20026;-78
2022/07/17 05:30:39;;;;;;;0.77;0.63;;;18.80;40.40;;;16.44;43.31;102178.34;12233693;19;20498;-78
2022/07/17 05:34:40;;;;;;;1.00;0.70;;;18.50;40.30;;;16.54;43.56;102187.44;12238712;19;20011;-77
2022/07/17 05:38:42;;;;;;;1.70;0.70;;;18.50;40.30;;;16.71;43.62;102202.28;12233372;19;20019;-77
2022/07/17 05:42:44;;;;;;;2.13;0.90;;;18.60;40.30;;;16.90;43.46;102220.59;12234917;19;20022;-78
2022/07/17 05:46:45;;;;;;;2.30;0.70;;;18.60;40.20;;;16.79;43.41;102184.28;12236482;19;20027;-78
2022/07/17 05:50:47;;;;;;;1.17;0.90;;;18.70;40.20;;;17.12;43.48;102221.06;12233803;19;20040;-78
2022/07/17 05:54:49;;;;;;;2.05;1.02;;;19.30;40.60;;;16.86;43.46;102142.56;12234195;19;20510;-77
2022/07/17 05:58:50;;;;;;;1.48;0.70;;;19.00;40.40;;;17.19;43.48;102180.13;12234327;19;20086;-78
2022/07/17 06:02:52;;;;;;;1.38;0.60;;;19.20;40.40;;;17.54;43.40;102222.06;12226039;19;20090;-78
2022/07/17 06:06:54;;;;;;;1.25;0.88;;;19.30;40.20;;;17.60;43.28;102232.25;12234407;19;20019;-78
2022/07/17 06:10:56;;;;;;;3.28;0.80;;;19.40;39.90;;;17.60;43.25;102221.66;12237399;19;20116;-78
2022/07/17 06:14:57;;;;;;;2.28;0.93;;;19.90;39.90;;;17.73;43.29;102242.91;12246700;19;20014;-77
2022/07/17 06:18:59;;;;;;;2.63;0.98;;;19.60;39.70;;;17.80;43.14;102246.94;12241113;19;20014;-78
2022/07/17 06:23:03;;;;;;;2.50;0.65;;;19.60;39.50;;;17.55;43.45;102200.00;12242921;19;20014;-77
2022/07/17 06:27:05;;;;;;;1.27;0.68;;;19.70;39.70;;;17.42;43.21;102183.19;12243484;19;20014;-77
2022/07/17 06:31:07;;;;;;;1.83;0.68;;;19.70;39.50;;;17.94;43.21;102259.28;12243237;19;20018;-77
2022/07/17 06:35:11;;;;;;;2.63;0.90;;;19.80;39.50;;;17.83;43.38;102230.88;12241598;19;20480;-77
2022/07/17 06:39:12;;;;;;;2.88;0.70;;;20.00;39.60;;;17.97;43.24;102245.03;12246121;19;20010;-76
2022/07/17 06:43:14;;;;;;;1.42;0.60;;;19.70;39.50;;;17.94;43.16;102222.28;12243440;19;20018;-77
2022/07/17 06:47:16;;;;;;;4.75;0.70;;;19.90;39.30;;;18.02;43.01;102227.94;12242995;19;20029;-78
2022/07/17 06:51:18;;;;;;;2.72;1.08;;;20.00;39.20;;;18.07;42.91;102228.50;12243999;19;20023;-77
2022/07/17 06:55:20;;;;;;;3.42;0.80;;;20.00;39.10;;;18.30;42.87;102257.91;12232243;19;20014;-78
2022/07/17 06:59:22;;;;;;;1.50;0.80;;;20.10;39.10;;;18.41;42.66;102265.19;12239457;19;20010;-77
2022/07/17 07:03:24;;;;;;;1.73;0.75;;;20.20;39.10;;;18.41;42.84;102252.78;12241885;19;20010;-77
2022/07/17 07:07:26;;;;;;;2.53;0.77;;;20.30;38.90;;;18.55;42.82;102263.38;12242421;19;20014;-77
2022/07/17 07:11:27;;;;;;;3.15;0.98;;;20.30;38.80;;;18.58;42.88;102268.44;12242213;19;20026;-76
2022/07/17 07:15:29;;;;;;;3.38;0.68;;;20.40;38.80;;;18.63;42.69;102269.94;12241455;19;20031;-77
2022/07/17 07:19:30;;;;;;;1.77;0.95;;;20.40;38.80;;;18.62;42.60;102273.53;12227188;19;20052;-76
2022/07/17 07:23:32;;;;;;;2.33;0.70;;;20.60;39.00;;;18.50;42.70;102243.44;12227618;19;20081;-77
2022/07/17 07:27:33;;;;;;;2.15;0.80;;;20.50;38.70;;;18.61;42.67;102254.19;12226587;19;20007;-76
2022/07/17 07:31:35;;;;;;;2.65;0.82;;;20.50;38.70;;;18.75;42.36;102269.19;12222962;19;20018;-77
2022/07/17 07:35:37;;;;;;;4.72;1.00;;;20.70;38.70;;;18.89;42.27;102271.78;12227700;19;20014;-77
2022/07/17 07:39:39;;;;;;;6.13;1.92;;;20.60;38.70;;;18.94;42.39;102264.38;12232839;19;20014;-77
2022/07/17 07:43:41;;;;;;;1.73;0.90;;;20.80;38.90;;;19.08;42.61;102273.22;12211222;19;20449;-76
2022/07/17 07:47:45;;;;;;;2.33;0.82;;;20.90;38.80;;;19.07;42.42;102261.78;12220694;19;20018;-77
2022/07/17 07:51:47;;;;;;;1.65;1.00;;;21.20;38.80;;;19.17;42.36;102269.94;12210835;19;20043;-76
2022/07/17 07:55:48;;;;;;;1.15;0.77;;;21.10;38.70;;;19.18;42.31;102253.09;12223767;19;20019;-77
2022/07/17 07:59:50;;;;;;;3.53;0.80;;;21.10;38.40;;;19.27;42.44;102271.03;12227211;19;20388;-77
2022/07/17 08:03:51;;;;;;;3.00;0.65;;;21.10;38.40;;;19.32;42.26;102278.66;12229061;19;20018;-77
2022/07/17 08:07:53;;;;;;;3.78;0.75;;;21.40;38.60;;;19.42;42.24;102285.88;12228573;19;20013;-77
2022/07/17 08:11:55;;;;;;;4.90;1.05;;;21.20;38.40;;;19.40;42.27;102282.50;12233383;19;20488;-77
2022/07/17 08:15:56;;;;;;;3.67;0.90;;;21.30;38.50;;;19.52;42.06;102290.56;12234584;19;20014;-77
2022/07/17 08:19:59;;;;;;;2.38;0.93;;;21.30;38.40;;;19.59;42.40;102294.50;12236600;19;20054;-77
2022/07/17 08:24:01;;;;;;;2.63;0.73;;;21.70;38.50;;;19.31;42.19;102256.63;12226900;19;20776;-77
2022/07/17 08:28:05;;;;;;;2.70;1.10;;;21.70;38.50;;;19.60;42.11;102304.97;12234525;19;20485;-77
2022/07/17 08:32:07;;;;;;;1.55;0.80;;;21.40;38.30;;;19.61;42.18;102300.53;12232225;19;20017;-78
2022/07/17 08:36:09;;;;;;;1.83;0.73;;;21.60;38.50;;;19.61;42.00;102300.53;12231262;19;20011;-78
2022/07/17 08:40:25;;;;;;;1.08;0.75;;;21.60;38.40;;;19.59;42.26;102303.28;12231612;19;20022;-77
2022/07/17 08:44:27;;;;;;;2.70;0.90;;;21.50;38.30;;;19.48;42.30;102292.56;12235076;19;20764;-77
2022/07/17 08:48:31;;;;;;;0.80;0.80;;;21.70;38.10;;;19.31;42.12;102283.13;12232563;19;20018;-77
2022/07/17 08:52:33;;;;;;;1.20;0.73;;;21.40;38.00;;;19.47;41.99;102306.78;12232423;19;20014;-78
2022/07/17 08:56:35;;;;;;;3.00;1.00;;;21.40;38.20;;;19.45;42.10;102285.69;12231106;19;20017;-77
2022/07/17 09:00:36;;;;;;;0.98;0.57;;;21.40;38.20;;;19.26;42.06;102248.16;12233956;19;20040;-77
2022/07/17 09:04:40;;;;;;;2.33;0.90;;;21.40;38.20;;;19.42;41.99;102263.84;12233385;19;20043;-77
2022/07/17 09:08:41;;;;;;;2.85;1.30;;;21.40;38.20;;;19.72;42.01;102310.44;12235586;19;20045;-77
2022/07/17 09:12:43;;;;;;;3.05;1.08;;;21.50;38.30;;;19.86;42.08;102305.88;12232360;19;20015;-77
2022/07/17 09:16:57;;;;;;;5.88;1.33;;;21.60;38.30;;;20.04;41.87;102310.88;12233236;19;20070;-78
2022/07/17 09:20:58;;;;;;;2.55;0.80;;;21.70;38.20;;;20.08;41.61;102309.69;12230636;19;20025;-77
2022/07/17 09:25:00;;;;;;;4.05;0.90;;;21.80;38.10;;;20.07;41.53;102284.97;12234100;19;20010;-77
2022/07/17 09:29:04;;;;;;;3.92;0.90;;;22.10;38.20;;;20.27;41.94;102294.16;12229845;19;20007;-77
2022/07/17 09:33:17;;;;;;;3.33;0.93;;;22.10;38.30;;;20.37;41.59;102289.03;12231065;19;20019;-77
2022/07/17 09:37:24;;;;;;;3.50;0.82;;;22.00;38.30;;;20.37;41.47;102257.22;12230833;19;20513;-77
2022/07/17 09:41:29;;;;;;;1.02;0.80;;;22.20;38.10;;;20.73;41.50;102276.75;12230710;19;20030;-77
2022/07/17 09:45:33;;;;;;;1.23;0.68;;;22.30;38.30;;;20.94;41.62;102269.84;12232721;19;20024;-78
2022/07/17 09:49:35;;;;;;;3.85;1.08;;;22.50;37.80;;;21.04;41.41;102267.34;12241576;19;20039;-77
2022/07/17 09:53:38;;;;;;;5.85;1.05;;;23.00;38.10;;;21.30;41.29;102286.63;12244876;19;20017;-78
2022/07/17 09:57:41;;;;;;;3.22;0.80;;;22.90;37.80;;;21.28;41.14;102261.13;12240984;19;20007;-76
2022/07/17 10:01:44;;;;;;;2.78;0.80;;;23.00;37.60;;;21.20;41.12;102235.16;12238817;19;20027;-77
2022/07/17 10:05:46;;;;;;;1.20;0.80;;;23.10;37.40;;;21.46;40.78;102289.00;12245016;19;20081;-76
2022/07/17 10:09:48;;;;;;;3.47;0.95;;;23.20;37.10;;;21.49;40.92;102293.22;12242607;19;20030;-76
2022/07/17 10:13:53;;;;;;;2.28;0.88;;;23.20;37.10;;;21.26;40.98;102247.13;12245517;19;20091;-77
2022/07/17 10:18:15;;;;;;;2.22;1.08;;;23.40;37.30;;;21.57;40.62;102286.34;12239862;19;20018;-76
2022/07/17 10:22:17;;;;;;;1.80;1.15;;;23.30;37.10;;;21.48;40.57;102271.13;12242012;19;20027;-77
2022/07/17 10:26:49;;;;;;;2.05;0.77;;;23.30;36.90;;;21.59;40.83;102278.28;12241784;19;20007;-77
2022/07/17 10:30:53;;;;;;;2.45;1.17;;;23.30;37.10;;;21.65;40.59;102291.09;12242384;19;20043;-78
2022/07/17 10:35:04;;;;;;;1.52;0.80;;;23.40;37.00;;;21.61;40.43;102266.56;12240777;19;20011;-77
2022/07/17 10:39:22;;;;;;;2.17;0.82;;;23.40;36.80;;;21.73;40.16;102274.53;12241414;19;20024;-76
2022/07/17 10:43:24;;;;;;;1.17;0.90;;;23.50;36.80;;;21.93;40.43;102292.47;12242657;19;20018;-77
2022/07/17 10:47:27;;;;;;;3.45;1.30;;;23.50;36.90;;;22.05;40.51;102291.47;12242508;19;20018;-77
2022/07/17 10:51:30;;;;;;;2.97;0.90;;;23.60;36.80;;;22.15;40.23;102280.97;12238361;19;20010;-77
2022/07/17 10:55:34;;;;;;;1.95;0.80;;;23.70;36.70;;;22.33;40.28;102273.34;12230023;19;20039;-77
2022/07/17 10:59:41;;;;;;;4.45;1.27;;;23.80;36.50;;;22.44;39.86;102277.78;12201553;19;20078;-77
2022/07/17 11:03:54;;;;;;;5.28;1.08;;;24.00;36.70;;;22.66;39.82;102284.91;12224397;19;20022;-77
2022/07/17 11:07:59;;;;;;;2.53;1.10;;;24.10;36.60;;;22.70;39.98;102259.69;12210807;19;20046;-77
2022/07/17 11:12:10;;;;;;;4.27;1.10;;;24.60;36.70;;;23.01;39.69;102278.47;12219902;19;20029;-77
2022/07/17 11:16:12;;;;;;;2.30;2.10;;;24.50;36.30;;;23.16;39.73;102278.03;12221205;19;20053;-77
2022/07/17 11:20:15;;;;;;;3.80;1.63;;;24.70;36.40;;;23.16;39.45;102267.38;12221499;19;20603;-78
2022/07/17 11:24:17;;;;;;;1.42;0.95;;;25.10;36.30;;;23.35;39.38;102272.00;12223905;19;20007;-77
2022/07/17 11:28:39;;;;;;;4.97;1.00;;;24.90;36.10;;;23.53;39.41;102266.09;12222081;19;20023;-77
2022/07/17 11:32:41;;;;;;;2.88;0.93;;;25.10;36.20;;;23.54;39.23;102254.44;12222182;19;20744;-78
2022/07/17 11:36:44;;;;;;;3.10;1.27;;;25.20;35.70;;;23.61;38.64;102252.94;12220819;19;20022;-78
2022/07/17 11:40:48;;;;;;;1.80;1.05;;;25.30;35.60;;;23.75;39.01;102271.28;12221129;19;20484;-77
2022/07/17 11:44:53;;;;;;;1.23;0.90;;;25.40;35.60;;;23.68;38.72;102235.41;12221916;19;20018;-78
2022/07/17 11:48:55;;;;;;;2.35;1.38;;;25.50;35.60;;;23.80;38.96;102238.88;12222953;19;20026;-76
2022/07/17 11:53:03;;;;;;;1.70;1.02;;;25.50;35.50;;;24.03;38.72;102245.72;12218085;19;20018;-76
2022/07/17 11:57:05;;;;;;;4.85;1.33;;;25.70;35.50;;;24.07;38.27;102244.44;12219493;19;20087;-76
2022/07/17 12:01:07;;;;;;;3.30;1.58;;;25.80;35.30;;;24.27;38.59;102258.69;12213666;19;20017;-77
2022/07/17 12:05:09;;;;;;;3.28;2.30;;;25.90;35.20;;;24.32;38.04;102262.78;12222354;19;20014;-77
2022/07/17 12:09:11;;;;;;;2.83;1.65;;;25.90;35.00;;;24.43;38.00;102262.66;12218400;19;20022;-76
2022/07/17 12:13:13;;;;;;;4.35;1.83;;;26.00;35.10;;;24.47;38.18;102242.75;12221729;19;20787;-77
2022/07/17 12:17:14;;;;;;;3.15;1.00;;;26.10;34.70;;;24.28;37.69;102201.66;12219553;19;20022;-77
2022/07/17 12:21:16;;;;;;;2.90;1.15;;;26.20;34.60;;;24.61;37.70;102247.69;12219627;19;20027;-77
2022/07/17 12:25:28;;;;;;;2.00;1.10;;;26.30;34.70;;;24.65;37.43;102251.75;12226917;19;20111;-77
2022/07/17 12:29:30;;;;;;;3.00;0.98;;;26.30;34.60;;;24.51;37.69;102214.75;12219092;19;20015;-77
2022/07/17 12:33:32;;;;;;;2.72;1.00;;;26.60;35.10;;;24.81;37.47;102247.69;12222245;19;20022;-77
2022/07/17 12:37:33;;;;;;;1.80;0.90;;;26.50;34.30;;;24.85;37.18;102249.09;12217469;19;20014;-77
2022/07/17 12:41:35;;;;;;;3.28;1.23;;;26.50;34.40;;;24.89;37.08;102250.47;12219626;19;20883;-77
2022/07/17 12:45:37;;;;;;;2.53;1.48;;;26.50;34.50;;;24.89;36.84;102229.09;12219661;19;20628;-76
2022/07/17 12:49:39;;;;;;;1.70;1.13;;;26.60;34.40;;;25.01;37.28;102237.84;12218515;19;20039;-77
2022/07/17 12:53:43;;;;;;;1.90;1.60;;;26.50;34.50;;;24.80;37.31;102190.72;12219265;19;20023;-76
2022/07/17 12:57:45;;;;;;;3.30;0.98;;;26.60;34.40;;;25.01;36.72;102219.13;12220372;19;20035;-77
2022/07/17 13:01:46;;;;;;;3.13;0.95;;;26.70;34.20;;;25.16;36.72;102233.75;12220561;19;20010;-77
2022/07/17 13:05:48;;;;;;;1.63;0.90;;;27.00;34.00;;;25.25;36.32;102226.69;12219727;19;20800;-76
2022/07/17 13:09:49;;;;;;;2.42;1.05;;;26.80;33.90;;;25.34;36.10;102220.50;12220209;19;20065;-77
2022/07/17 13:13:51;;;;;;;4.13;1.48;;;26.90;33.60;;;25.48;36.14;102225.34;12218205;19;20106;-77
2022/07/17 13:17:53;;;;;;;1.27;0.85;;;27.20;33.50;;;25.50;36.18;102225.22;12218804;19;20053;-76
2022/07/17 13:21:55;;;;;;;6.20;1.20;;;27.10;33.30;;;25.34;35.72;102193.75;12217539;19;20503;-77
2022/07/17 13:25:56;;;;;;;2.78;1.30;;;27.10;33.00;;;25.39;35.63;102200.34;12233568;19;20022;-77
2022/07/17 13:29:57;;;;;;;3.60;0.95;;;27.10;32.90;;;25.59;35.77;102209.13;12236794;19;20082;-77
2022/07/17 13:33:59;;;;;;;6.03;1.05;;;27.10;33.00;;;25.66;35.43;102219.25;12235072;19;20074;-77
2022/07/17 13:38:02;;;;;;;2.78;1.58;;;27.20;32.90;;;25.56;35.47;102196.03;12236472;19;20034;-77
2022/07/17 13:42:04;;;;;;;1.13;0.70;;;27.20;32.80;;;25.56;34.88;102189.84;12234749;19;20018;-77
2022/07/17 13:46:06;;;;;;;2.53;0.90;;;27.20;32.60;;;25.54;35.06;102187.31;12241633;19;20022;-78
2022/07/17 13:50:08;;;;;;;1.35;1.00;;;27.20;32.70;;;25.77;35.00;102194.97;12235127;19;20049;-77
2022/07/17 13:54:10;;;;;;;2.70;1.02;;;27.30;32.70;;;25.82;34.97;102193.53;12239259;19;20029;-77
2022/07/17 13:58:12;;;;;;;1.65;1.00;;;27.30;32.60;;;25.78;34.49;102177.91;12232368;19;20014;-77
2022/07/17 14:02:14;;;;;;;1.70;0.70;;;27.40;32.70;;;25.90;34.91;102178.59;12236163;19;20035;-77
2022/07/17 14:06:16;;;;;;;3.72;1.00;;;27.50;32.40;;;25.85;34.42;102164.81;12239135;19;20026;-77
2022/07/17 14:10:18;;;;;;;1.02;0.90;;;27.50;32.40;;;25.78;34.50;102154.66;12234083;19;20389;-77
2022/07/17 14:14:20;;;;;;;4.00;1.20;;;27.60;32.40;;;25.82;34.27;102153.38;12237126;19;20022;-77
2022/07/17 14:18:21;;;;;;;2.03;1.13;;;27.60;32.30;;;26.01;34.26;102178.41;12232657;19;20446;-77
2022/07/17 14:22:23;;;;;;;4.78;0.75;;;27.60;32.00;;;26.11;34.51;102181.00;12233677;19;20019;-78
2022/07/17 14:26:24;;;;;;;4.65;2.03;;;27.60;32.30;;;26.02;34.14;102161.31;12238311;19;20086;-77
2022/07/17 14:30:26;;;;;;;2.17;0.90;;;27.70;32.10;;;26.04;34.10;102151.31;12234007;19;20021;-77
2022/07/17 14:34:28;;;;;;;1.92;1.00;;;27.70;32.10;;;26.20;34.33;102169.38;12222875;19;20018;-78
2022/07/17 14:38:30;;;;;;;1.60;1.00;;;27.80;32.20;;;26.28;33.95;102169.47;12219922;19;20018;-77
2022/07/17 14:42:33;;;;;;;1.70;1.02;;;27.80;32.00;;;26.24;34.05;102143.97;12224091;19;20038;-77
2022/07/17 14:46:34;;;;;;;1.60;1.20;;;27.80;32.00;;;26.33;33.73;102159.13;12227230;19;20557;-76
2022/07/17 14:50:36;;;;;;;2.92;1.15;;;27.90;32.20;;;26.05;33.44;102108.31;12220970;19;20026;-76
2022/07/17 14:54:38;;;;;;;0.90;0.80;;;27.90;32.00;;;26.37;33.47;102141.75;12225699;19;20021;-77
2022/07/17 14:58:39;;;;;;;1.40;0.93;;;27.90;31.90;;;26.41;33.23;102137.78;12221147;19;20039;-77
2022/07/17 15:02:41;;;;;;;1.25;0.80;;;28.00;31.80;;;26.47;33.53;102141.69;12220262;19;20074;-76
2022/07/17 15:06:43;;;;;;;3.75;1.20;;;28.10;32.00;;;26.62;33.70;102158.91;12223259;19;20026;-77
2022/07/17 15:10:47;;;;;;;3.85;1.52;;;28.10;32.10;;;26.55;33.27;102135.56;12224350;19;20026;-78
2022/07/17 15:14:49;;;;;;;1.73;1.05;;;28.20;31.90;;;26.75;33.44;102161.19;12223306;19;20010;-77
2022/07/17 15:18:51;;;;;;;1.30;1.05;;;28.20;31.70;;;26.53;32.77;102126.84;12220677;19;20081;-77
2022/07/17 15:22:52;;;;;;;1.33;0.70;;;28.20;31.50;;;26.60;32.86;102143.97;12219830;19;20019;-77
2022/07/17 15:26:54;;;;;;;1.70;0.90;;;28.20;31.30;;;26.68;32.91;102152.94;12223276;19;20630;-77
2022/07/17 15:30:56;;;;;;;1.27;0.90;;;28.20;31.40;;;26.75;32.60;102155.81;12221503;19;20018;-76
2022/07/17 15:34:57;;;;;;;2.15;0.80;;;28.20;31.30;;;26.67;32.54;102135.16;12221476;19;20018;-77
2022/07/17 15:38:59;;;;;;;1.30;0.90;;;28.50;31.40;;;26.73;32.71;102132.84;12210495;19;20484;-77
2022/07/17 15:43:01;;;;;;;1.55;0.88;;;28.30;31.40;;;26.87;32.62;102141.19;12218435;19;20014;-77
2022/07/17 15:47:02;;;;;;;2.60;1.08;;;28.40;31.40;;;26.83;32.63;102131.75;12220213;19;20103;-78
2022/07/17 15:51:04;;;;;;;2.78;0.90;;;28.30;31.20;;;26.89;32.40;102124.91;12220139;19;20180;-78
2022/07/17 15:55:07;;;;;;;1.95;0.90;;;28.40;31.20;;;26.90;32.15;102123.94;12216669;19;20527;-78
2022/07/17 15:59:09;;;;;;;3.25;0.93;;;28.40;31.10;;;26.93;32.33;102124.44;12220665;19;20417;-80
2022/07/17 16:03:11;;;;;;;3.42;1.15;;;28.50;31.10;;;26.80;32.32;102105.25;12214718;19;20039;-78
2022/07/17 16:07:12;;;;;;;1.67;0.98;;;28.40;31.00;;;26.88;32.37;102112.53;12220182;19;20352;-78
2022/07/17 16:11:14;;;;;;;1.92;0.95;;;28.40;30.70;;;26.76;32.14;102095.00;12215779;19;20035;-78
2022/07/17 16:15:15;;;;;;;2.17;0.90;;;28.40;30.90;;;26.63;32.15;102079.38;12218296;19;20011;-78
2022/07/17 16:19:17;;;;;;;0.85;0.85;;;28.40;30.80;;;26.75;31.92;102083.44;12218403;19;20035;-78
2022/07/17 16:23:19;;;;;;;2.60;0.77;;;28.40;30.90;;;26.75;32.10;102086.13;12216530;19;20053;-78
2022/07/17 16:27:20;;;;;;;0.80;0.80;;;28.40;30.80;;;26.80;31.93;102104.44;12217783;19;20511;-78
2022/07/17 16:31:22;;;;;;;3.58;0.88;;;28.40;30.70;;;26.75;31.99;102094.16;12214484;19;20626;-78
2022/07/17 16:35:23;;;;;;;1.60;0.80;;;28.30;31.00;;;26.72;31.94;102090.97;12215011;19;20010;-77
2022/07/17 16:39:25;;;;;;;1.33;1.08;;;28.30;30.90;;;26.72;31.90;102089.13;12212526;19;20067;-78